sensor_id;sensor_type;location;lat;lon;timestamp;pressure;altitude;pressure_sealevel;temperature;humidity
49297;BME280;35163;48.878;18.040;2023-03-01T00:01:14;99444.25;;;0.29;62.80
49297;BME280;35163;48.878;18.040;2023-03-01T00:03:42;99450.19;;;0.29;63.03
49297;BME280;35163;48.878;18.040;2023-03-01T00:06:09;99445.94;;;0.28;62.95
49297;BME280;35163;48.878;18.040;2023-03-01T00:08:36;99446.00;;;0.31;62.92
49297;BME280;35163;48.878;18.040;2023-03-01T00:13:39;99458.94;;;0.39;62.70
49297;BME280;35163;48.878;18.040;2023-03-01T00:16:09;99453.91;;;0.41;62.30
49297;BME280;35163;48.878;18.040;2023-03-01T00:18:36;99458.81;;;0.34;62.89
49297;BME280;35163;48.878;18.040;2023-03-01T00:21:03;99450.38;;;0.35;63.25
49297;BME280;35163;48.878;18.040;2023-03-01T00:23:30;99444.22;;;0.27;63.04
49297;BME280;35163;48.878;18.040;2023-03-01T00:25:56;99448.34;;;0.23;63.92
49297;BME280;35163;48.878;18.040;2023-03-01T00:28:23;99448.44;;;0.27;63.49
49297;BME280;35163;48.878;18.040;2023-03-01T00:30:49;99446.16;;;0.36;62.70
49297;BME280;35163;48.878;18.040;2023-03-01T00:33:16;99442.63;;;0.31;63.06
49297;BME280;35163;48.878;18.040;2023-03-01T00:35:43;99447.41;;;0.20;63.19
49297;BME280;35163;48.878;18.040;2023-03-01T00:38:10;99443.31;;;0.25;63.35
49297;BME280;35163;48.878;18.040;2023-03-01T00:40:37;99450.41;;;0.37;63.84
49297;BME280;35163;48.878;18.040;2023-03-01T00:43:06;99449.38;;;0.30;63.80
49297;BME280;35163;48.878;18.040;2023-03-01T00:45:32;99438.50;;;0.36;63.06
49297;BME280;35163;48.878;18.040;2023-03-01T00:47:59;99433.31;;;0.33;62.56
49297;BME280;35163;48.878;18.040;2023-03-01T00:50:26;99425.50;;;0.25;63.06
49297;BME280;35163;48.878;18.040;2023-03-01T00:52:56;99410.13;;;0.20;63.38
49297;BME280;35163;48.878;18.040;2023-03-01T00:55:23;99405.06;;;0.22;62.32
49297;BME280;35163;48.878;18.040;2023-03-01T00:57:50;99401.53;;;0.17;63.07
49297;BME280;35163;48.878;18.040;2023-03-01T01:00:17;99403.97;;;0.12;63.25
49297;BME280;35163;48.878;18.040;2023-03-01T01:02:44;99409.13;;;0.15;62.68
49297;BME280;35163;48.878;18.040;2023-03-01T01:05:12;99402.44;;;0.19;62.98
49297;BME280;35163;48.878;18.040;2023-03-01T01:07:48;99392.31;;;0.20;62.95
49297;BME280;35163;48.878;18.040;2023-03-01T01:10:14;99404.31;;;0.26;63.33
49297;BME280;35163;48.878;18.040;2023-03-01T01:12:46;99401.00;;;0.29;63.04
49297;BME280;35163;48.878;18.040;2023-03-01T01:15:13;99403.69;;;0.35;63.08
49297;BME280;35163;48.878;18.040;2023-03-01T01:17:41;99404.63;;;0.39;63.45
49297;BME280;35163;48.878;18.040;2023-03-01T01:20:09;99397.09;;;0.43;62.67
49297;BME280;35163;48.878;18.040;2023-03-01T01:22:36;99394.56;;;0.43;63.13
49297;BME280;35163;48.878;18.040;2023-03-01T01:25:02;99397.06;;;0.42;64.21
49297;BME280;35163;48.878;18.040;2023-03-01T01:27:29;99392.84;;;0.42;63.92
49297;BME280;35163;48.878;18.040;2023-03-01T01:29:56;99384.34;;;0.42;64.51
49297;BME280;35163;48.878;18.040;2023-03-01T01:32:22;99379.47;;;0.50;62.95
49297;BME280;35163;48.878;18.040;2023-03-01T01:34:52;99373.63;;;0.54;62.42
49297;BME280;35163;48.878;18.040;2023-03-01T01:37:18;99375.94;;;0.44;62.92
49297;BME280;35163;48.878;18.040;2023-03-01T01:39:45;99373.66;;;0.55;61.92
49297;BME280;35163;48.878;18.040;2023-03-01T01:42:16;99375.50;;;0.61;62.55
49297;BME280;35163;48.878;18.040;2023-03-01T01:44:46;99381.34;;;0.58;63.04
49297;BME280;35163;48.878;18.040;2023-03-01T01:47:16;99379.78;;;0.64;64.39
49297;BME280;35163;48.878;18.040;2023-03-01T01:52:16;99382.47;;;0.68;64.49
49297;BME280;35163;48.878;18.040;2023-03-01T01:57:15;99387.28;;;0.57;64.96
49297;BME280;35163;48.878;18.040;2023-03-01T01:59:46;99384.84;;;0.62;65.33
49297;BME280;35163;48.878;18.040;2023-03-01T02:02:14;99388.34;;;0.67;64.76
49297;BME280;35163;48.878;18.040;2023-03-01T02:04:42;99393.34;;;0.63;65.22
49297;BME280;35163;48.878;18.040;2023-03-01T02:07:17;99385.00;;;0.68;65.07
49297;BME280;35163;48.878;18.040;2023-03-01T02:09:47;99379.00;;;0.66;64.10
49297;BME280;35163;48.878;18.040;2023-03-01T02:12:17;99375.66;;;0.69;63.34
49297;BME280;35163;48.878;18.040;2023-03-01T02:14:44;99370.56;;;0.69;63.28
49297;BME280;35163;48.878;18.040;2023-03-01T02:17:12;99373.84;;;0.63;62.34
49297;BME280;35163;48.878;18.040;2023-03-01T02:22:31;99390.16;;;0.71;64.32
49297;BME280;35163;48.878;18.040;2023-03-01T02:28:08;99384.25;;;0.72;66.28
49297;BME280;35163;48.878;18.040;2023-03-01T02:30:37;99389.50;;;0.79;65.25
49297;BME280;35163;48.878;18.040;2023-03-01T02:33:25;99383.56;;;0.80;65.37
49297;BME280;35163;48.878;18.040;2023-03-01T02:35:54;99375.91;;;0.78;64.88
49297;BME280;35163;48.878;18.040;2023-03-01T02:38:22;99381.88;;;0.79;64.99
49297;BME280;35163;48.878;18.040;2023-03-01T02:40:51;99390.34;;;0.79;65.04
49297;BME280;35163;48.878;18.040;2023-03-01T02:43:19;99377.53;;;0.76;65.26
49297;BME280;35163;48.878;18.040;2023-03-01T02:45:51;99379.31;;;0.79;65.21
49297;BME280;35163;48.878;18.040;2023-03-01T02:48:19;99371.69;;;0.79;65.48
49297;BME280;35163;48.878;18.040;2023-03-01T02:51:09;99375.03;;;0.78;65.20
49297;BME280;35163;48.878;18.040;2023-03-01T02:56:15;99376.78;;;0.79;64.69
49297;BME280;35163;48.878;18.040;2023-03-01T02:58:43;99375.09;;;0.81;64.49
49297;BME280;35163;48.878;18.040;2023-03-01T03:01:18;99376.84;;;0.82;64.80
49297;BME280;35163;48.878;18.040;2023-03-01T03:03:45;99378.56;;;0.84;64.87
49297;BME280;35163;48.878;18.040;2023-03-01T03:06:12;99388.72;;;0.83;64.32
49297;BME280;35163;48.878;18.040;2023-03-01T03:08:39;99380.28;;;0.84;65.02
49297;BME280;35163;48.878;18.040;2023-03-01T03:11:05;99379.50;;;0.88;65.61
49297;BME280;35163;48.878;18.040;2023-03-01T03:13:32;99381.28;;;0.91;63.45
49297;BME280;35163;48.878;18.040;2023-03-01T03:15:58;99379.72;;;0.96;62.54
49297;BME280;35163;48.878;18.040;2023-03-01T03:18:25;99387.41;;;0.99;62.74
49297;BME280;35163;48.878;18.040;2023-03-01T03:20:53;99381.47;;;1.00;64.15
49297;BME280;35163;48.878;18.040;2023-03-01T03:23:23;99383.09;;;0.96;64.27
49297;BME280;35163;48.878;18.040;2023-03-01T03:25:50;99367.75;;;0.93;65.11
49297;BME280;35163;48.878;18.040;2023-03-01T03:28:17;99354.16;;;0.93;65.76
49297;BME280;35163;48.878;18.040;2023-03-01T03:30:44;99360.19;;;0.96;64.84
49297;BME280;35163;48.878;18.040;2023-03-01T03:33:11;99364.41;;;0.94;62.12
49297;BME280;35163;48.878;18.040;2023-03-01T03:35:46;99373.13;;;1.06;61.32
49297;BME280;35163;48.878;18.040;2023-03-01T03:38:15;99379.03;;;1.05;61.07
49297;BME280;35163;48.878;18.040;2023-03-01T03:40:47;99366.22;;;1.02;61.12
49297;BME280;35163;48.878;18.040;2023-03-01T03:43:16;99353.38;;;0.95;61.24
49297;BME280;35163;48.878;18.040;2023-03-01T03:45:45;99357.44;;;0.87;61.45
49297;BME280;35163;48.878;18.040;2023-03-01T03:48:12;99351.06;;;0.69;62.45
49297;BME280;35163;48.878;18.040;2023-03-01T03:50:40;99343.88;;;0.51;63.12
49297;BME280;35163;48.878;18.040;2023-03-01T03:53:09;99352.69;;;0.30;62.93
49297;BME280;35163;48.878;18.040;2023-03-01T03:55:36;99355.13;;;0.26;63.13
49297;BME280;35163;48.878;18.040;2023-03-01T03:58:07;99356.91;;;0.30;63.39
49297;BME280;35163;48.878;18.040;2023-03-01T04:00:36;99357.09;;;0.36;63.22
49297;BME280;35163;48.878;18.040;2023-03-01T04:03:03;99358.94;;;0.43;63.76
49297;BME280;35163;48.878;18.040;2023-03-01T04:05:30;99358.09;;;0.43;64.36
49297;BME280;35163;48.878;18.040;2023-03-01T04:08:00;99365.75;;;0.44;64.44
49297;BME280;35163;48.878;18.040;2023-03-01T04:10:32;99368.88;;;0.32;65.21
49297;BME280;35163;48.878;18.040;2023-03-01T04:12:59;99358.47;;;0.24;64.25
49297;BME280;35163;48.878;18.040;2023-03-01T04:15:26;99362.91;;;0.32;64.17
49297;BME280;35163;48.878;18.040;2023-03-01T04:17:54;99363.75;;;0.31;64.26
49297;BME280;35163;48.878;18.040;2023-03-01T04:20:27;99360.44;;;0.35;64.41
49297;BME280;35163;48.878;18.040;2023-03-01T04:23:12;99356.97;;;0.33;64.61
49297;BME280;35163;48.878;18.040;2023-03-01T04:25:57;99354.38;;;0.30;64.89
49297;BME280;35163;48.878;18.040;2023-03-01T04:28:28;99349.75;;;0.15;65.07
49297;BME280;35163;48.878;18.040;2023-03-01T04:30:57;99345.16;;;0.01;65.27
49297;BME280;35163;48.878;18.040;2023-03-01T04:33:24;99357.28;;;0.10;64.50
49297;BME280;35163;48.878;18.040;2023-03-01T04:35:53;99344.69;;;0.16;64.36
49297;BME280;35163;48.878;18.040;2023-03-01T04:38:20;99343.78;;;0.14;65.34
49297;BME280;35163;48.878;18.040;2023-03-01T04:40:47;99346.66;;;0.27;64.73
49297;BME280;35163;48.878;18.040;2023-03-01T04:43:14;99343.16;;;0.23;64.56
49297;BME280;35163;48.878;18.040;2023-03-01T04:45:42;99348.38;;;0.28;64.47
49297;BME280;35163;48.878;18.040;2023-03-01T04:48:08;99355.19;;;0.29;64.62
49297;BME280;35163;48.878;18.040;2023-03-01T04:50:35;99350.13;;;0.29;63.29
49297;BME280;35163;48.878;18.040;2023-03-01T04:53:02;99351.09;;;0.34;63.53
49297;BME280;35163;48.878;18.040;2023-03-01T04:55:29;99352.06;;;0.39;63.83
49297;BME280;35163;48.878;18.040;2023-03-01T04:57:55;99353.69;;;0.37;63.61
49297;BME280;35163;48.878;18.040;2023-03-01T05:00:23;99352.06;;;0.39;63.88
49297;BME280;35163;48.878;18.040;2023-03-01T05:02:52;99353.84;;;0.43;64.48
49297;BME280;35163;48.878;18.040;2023-03-01T05:05:25;99342.00;;;0.44;63.78
49297;BME280;35163;48.878;18.040;2023-03-01T05:07:56;99344.47;;;0.41;63.32
49297;BME280;35163;48.878;18.040;2023-03-01T05:10:24;99351.44;;;0.48;63.72
49297;BME280;35163;48.878;18.040;2023-03-01T05:12:51;99355.72;;;0.51;63.25
49297;BME280;35163;48.878;18.040;2023-03-01T05:15:21;99353.34;;;0.58;63.84
49297;BME280;35163;48.878;18.040;2023-03-01T05:17:55;99352.50;;;0.58;63.46
49297;BME280;35163;48.878;18.040;2023-03-01T05:20:26;99342.25;;;0.55;63.73
49297;BME280;35163;48.878;18.040;2023-03-01T05:22:56;99337.94;;;0.52;63.67
49297;BME280;35163;48.878;18.040;2023-03-01T05:25:25;99343.03;;;0.52;63.80
49297;BME280;35163;48.878;18.040;2023-03-01T05:27:52;99335.28;;;0.47;64.24
49297;BME280;35163;48.878;18.040;2023-03-01T05:30:19;99342.97;;;0.49;64.43
49297;BME280;35163;48.878;18.040;2023-03-01T05:32:48;99341.97;;;0.42;63.91
49297;BME280;35163;48.878;18.040;2023-03-01T05:35:17;99343.66;;;0.43;64.40
49297;BME280;35163;48.878;18.040;2023-03-01T05:37:48;99345.41;;;0.44;63.84
49297;BME280;35163;48.878;18.040;2023-03-01T05:40:21;99337.84;;;0.47;64.25
49297;BME280;35163;48.878;18.040;2023-03-01T05:42:52;99337.81;;;0.46;65.14
49297;BME280;35163;48.878;18.040;2023-03-01T05:45:20;99342.03;;;0.45;65.05
49297;BME280;35163;48.878;18.040;2023-03-01T05:47:48;99351.25;;;0.42;65.10
49297;BME280;35163;48.878;18.040;2023-03-01T05:50:18;99348.63;;;0.37;65.76
49297;BME280;35163;48.878;18.040;2023-03-01T05:52:51;99353.78;;;0.40;65.79
49297;BME280;35163;48.878;18.040;2023-03-01T05:55:20;99344.44;;;0.39;66.08
49297;BME280;35163;48.878;18.040;2023-03-01T05:57:47;99340.19;;;0.40;66.25
49297;BME280;35163;48.878;18.040;2023-03-01T06:00:16;99346.06;;;0.37;65.85
49297;BME280;35163;48.878;18.040;2023-03-01T06:02:43;99344.50;;;0.42;65.59
49297;BME280;35163;48.878;18.040;2023-03-01T06:05:13;99347.13;;;0.45;65.26
49297;BME280;35163;48.878;18.040;2023-03-01T06:07:41;99353.09;;;0.47;64.84
49297;BME280;35163;48.878;18.040;2023-03-01T06:10:08;99351.38;;;0.46;64.90
49297;BME280;35163;48.878;18.040;2023-03-01T06:12:37;99353.97;;;0.48;64.96
49297;BME280;35163;48.878;18.040;2023-03-01T06:15:05;99349.75;;;0.50;65.42
49297;BME280;35163;48.878;18.040;2023-03-01T06:17:35;99349.13;;;0.59;66.24
49297;BME280;35163;48.878;18.040;2023-03-01T06:20:19;99342.53;;;0.67;68.11
49297;BME280;35163;48.878;18.040;2023-03-01T06:22:47;99349.50;;;0.75;66.13
49297;BME280;35163;48.878;18.040;2023-03-01T06:25:18;99357.38;;;0.84;66.81
49297;BME280;35163;48.878;18.040;2023-03-01T06:27:46;99353.25;;;0.89;65.63
49297;BME280;35163;48.878;18.040;2023-03-01T06:30:14;99349.97;;;0.96;65.45
49297;BME280;35163;48.878;18.040;2023-03-01T06:32:41;99353.56;;;1.05;64.94
49297;BME280;35163;48.878;18.040;2023-03-01T06:35:12;99354.72;;;1.18;64.66
49297;BME280;35163;48.878;18.040;2023-03-01T06:37:40;99359.09;;;1.24;63.49
49297;BME280;35163;48.878;18.040;2023-03-01T06:40:08;99355.81;;;1.31;63.89
49297;BME280;35163;48.878;18.040;2023-03-01T06:42:35;99356.03;;;1.40;62.98
49297;BME280;35163;48.878;18.040;2023-03-01T06:45:03;99346.00;;;1.50;62.34
49297;BME280;35163;48.878;18.040;2023-03-01T06:47:31;99349.56;;;1.58;62.17
49297;BME280;35163;48.878;18.040;2023-03-01T06:50:00;99346.41;;;1.70;60.68
49297;BME280;35163;48.878;18.040;2023-03-01T06:52:27;99345.75;;;1.80;61.63
49297;BME280;35163;48.878;18.040;2023-03-01T06:54:53;99339.25;;;1.97;61.02
49297;BME280;35163;48.878;18.040;2023-03-01T06:57:20;99340.19;;;2.02;60.24
49297;BME280;35163;48.878;18.040;2023-03-01T06:59:47;99334.50;;;2.17;60.07
49297;BME280;35163;48.878;18.040;2023-03-01T07:02:14;99327.66;;;2.13;58.44
49297;BME280;35163;48.878;18.040;2023-03-01T07:04:42;99332.91;;;2.24;57.93
49297;BME280;35163;48.878;18.040;2023-03-01T07:07:09;99337.44;;;2.40;57.95
49297;BME280;35163;48.878;18.040;2023-03-01T07:09:36;99332.44;;;2.47;58.10
49297;BME280;35163;48.878;18.040;2023-03-01T07:12:03;99333.19;;;2.41;55.70
49297;BME280;35163;48.878;18.040;2023-03-01T07:14:29;99332.41;;;2.43;56.27
49297;BME280;35163;48.878;18.040;2023-03-01T07:16:56;99333.34;;;2.49;55.92
49297;BME280;35163;48.878;18.040;2023-03-01T07:19:23;99331.03;;;2.64;55.82
49297;BME280;35163;48.878;18.040;2023-03-01T07:21:49;99328.31;;;2.53;54.45
49297;BME280;35163;48.878;18.040;2023-03-01T07:24:16;99329.16;;;2.54;55.07
49297;BME280;35163;48.878;18.040;2023-03-01T07:26:42;99321.81;;;2.76;55.31
49297;BME280;35163;48.878;18.040;2023-03-01T07:29:10;99325.38;;;2.86;54.69
49297;BME280;35163;48.878;18.040;2023-03-01T07:31:37;99321.09;;;2.83;53.67
49297;BME280;35163;48.878;18.040;2023-03-01T07:34:03;99331.19;;;2.77;53.29
49297;BME280;35163;48.878;18.040;2023-03-01T07:36:30;99323.56;;;2.78;53.26
49297;BME280;35163;48.878;18.040;2023-03-01T07:38:57;99335.59;;;2.87;54.12
49297;BME280;35163;48.878;18.040;2023-03-01T07:41:24;99321.13;;;2.86;53.65
49297;BME280;35163;48.878;18.040;2023-03-01T07:43:51;99317.78;;;2.92;53.23
49297;BME280;35163;48.878;18.040;2023-03-01T07:46:17;99321.28;;;2.99;53.35
49297;BME280;35163;48.878;18.040;2023-03-01T07:48:45;99318.88;;;3.08;53.59
49297;BME280;35163;48.878;18.040;2023-03-01T07:51:13;99322.31;;;3.12;54.98
49297;BME280;35163;48.878;18.040;2023-03-01T07:53:39;99329.16;;;3.14;54.43
49297;BME280;35163;48.878;18.040;2023-03-01T07:56:11;99329.94;;;3.06;54.39
49297;BME280;35163;48.878;18.040;2023-03-01T07:58:40;99333.53;;;3.22;54.32
49297;BME280;35163;48.878;18.040;2023-03-01T08:01:10;99333.50;;;3.20;52.73
49297;BME280;35163;48.878;18.040;2023-03-01T08:03:37;99334.28;;;3.14;52.30
49297;BME280;35163;48.878;18.040;2023-03-01T08:06:06;99333.47;;;3.17;52.86
49297;BME280;35163;48.878;18.040;2023-03-01T08:08:33;99330.09;;;3.20;52.44
49297;BME280;35163;48.878;18.040;2023-03-01T08:11:02;99329.16;;;3.13;52.80
49297;BME280;35163;48.878;18.040;2023-03-01T08:13:29;99334.19;;;3.08;53.03
49297;BME280;35163;48.878;18.040;2023-03-01T08:16:04;99333.41;;;3.12;52.56
49297;BME280;35163;48.878;18.040;2023-03-01T08:18:31;99317.19;;;3.10;53.44
49297;BME280;35163;48.878;18.040;2023-03-01T08:21:11;99329.16;;;3.13;52.67
49297;BME280;35163;48.878;18.040;2023-03-01T08:23:39;99320.75;;;3.23;52.63
49297;BME280;35163;48.878;18.040;2023-03-01T08:26:13;99329.25;;;3.19;51.89
49297;BME280;35163;48.878;18.040;2023-03-01T08:28:40;99337.84;;;3.24;52.12
49297;BME280;35163;48.878;18.040;2023-03-01T08:31:15;99333.69;;;3.34;51.84
49297;BME280;35163;48.878;18.040;2023-03-01T08:33:42;99334.59;;;3.38;51.23
49297;BME280;35163;48.878;18.040;2023-03-01T08:36:09;99334.63;;;3.39;51.35
49297;BME280;35163;48.878;18.040;2023-03-01T08:38:35;99333.75;;;3.40;51.55
49297;BME280;35163;48.878;18.040;2023-03-01T08:41:03;99323.63;;;3.47;51.60
49297;BME280;35163;48.878;18.040;2023-03-01T08:43:30;99322.00;;;3.54;50.96
49297;BME280;35163;48.878;18.040;2023-03-01T08:45:57;99323.66;;;3.50;51.21
49297;BME280;35163;48.878;18.040;2023-03-01T08:48:23;99319.44;;;3.54;51.51
49297;BME280;35163;48.878;18.040;2023-03-01T08:50:50;99323.78;;;3.62;51.80
49297;BME280;35163;48.878;18.040;2023-03-01T08:53:17;99332.31;;;3.61;51.11
49297;BME280;35163;48.878;18.040;2023-03-01T08:55:44;99319.53;;;3.64;50.97
49297;BME280;35163;48.878;18.040;2023-03-01T08:58:10;99325.72;;;3.84;51.62
49297;BME280;35163;48.878;18.040;2023-03-01T09:00:38;99324.84;;;3.82;51.65
49297;BME280;35163;48.878;18.040;2023-03-01T09:03:04;99324.97;;;3.91;51.27
49297;BME280;35163;48.878;18.040;2023-03-01T09:05:32;99321.38;;;3.75;51.46
49297;BME280;35163;48.878;18.040;2023-03-01T09:07:59;99314.59;;;3.80;51.15
49297;BME280;35163;48.878;18.040;2023-03-01T09:10:26;99318.84;;;3.78;50.29
49297;BME280;35163;48.878;18.040;2023-03-01T09:12:53;99314.53;;;3.72;49.96
49297;BME280;35163;48.878;18.040;2023-03-01T09:15:19;99315.38;;;3.74;50.36
49297;BME280;35163;48.878;18.040;2023-03-01T09:17:46;99305.25;;;3.82;49.87
49297;BME280;35163;48.878;18.040;2023-03-01T09:20:13;99294.16;;;3.83;49.73
49297;BME280;35163;48.878;18.040;2023-03-01T09:22:39;99295.91;;;3.87;50.17
49297;BME280;35163;48.878;18.040;2023-03-01T09:25:06;99290.88;;;3.98;49.79
49297;BME280;35163;48.878;18.040;2023-03-01T09:27:32;99292.63;;;4.03;49.23
49297;BME280;35163;48.878;18.040;2023-03-01T09:29:59;99288.38;;;4.03;49.43
49297;BME280;35163;48.878;18.040;2023-03-01T09:32:26;99299.53;;;4.08;49.37
49297;BME280;35163;48.878;18.040;2023-03-01T09:34:52;99293.66;;;4.19;49.22
49297;BME280;35163;48.878;18.040;2023-03-01T09:37:31;99290.28;;;4.26;49.13
49297;BME280;35163;48.878;18.040;2023-03-01T09:39:58;99287.72;;;4.26;49.48
49297;BME280;35163;48.878;18.040;2023-03-01T09:42:25;99293.81;;;4.41;49.00
49297;BME280;35163;48.878;18.040;2023-03-01T09:44:59;99292.97;;;4.43;48.38
49297;BME280;35163;48.878;18.040;2023-03-01T09:47:32;99293.03;;;4.51;49.02
49297;BME280;35163;48.878;18.040;2023-03-01T09:50:15;99291.44;;;4.69;48.65
49297;BME280;35163;48.878;18.040;2023-03-01T09:52:48;99292.31;;;4.74;48.20
49297;BME280;35163;48.878;18.040;2023-03-01T09:58:31;99285.66;;;5.01;47.88
49297;BME280;35163;48.878;18.040;2023-03-01T10:07:20;99285.81;;;5.37;47.06
49297;BME280;35163;48.878;18.040;2023-03-01T10:09:48;99281.56;;;5.47;46.79
49297;BME280;35163;48.878;18.040;2023-03-01T10:12:16;99285.03;;;5.55;46.56
49297;BME280;35163;48.878;18.040;2023-03-01T10:19:53;99262.81;;;5.67;46.05
49297;BME280;35163;48.878;18.040;2023-03-01T10:22:28;99263.66;;;5.72;46.41
49297;BME280;35163;48.878;18.040;2023-03-01T10:24:57;99257.69;;;5.82;46.33
49297;BME280;35163;48.878;18.040;2023-03-01T10:27:37;99247.44;;;5.93;46.13
49297;BME280;35163;48.878;18.040;2023-03-01T10:30:35;99246.59;;;5.98;45.84
49297;BME280;35163;48.878;18.040;2023-03-01T10:33:17;99250.88;;;6.03;45.79
49297;BME280;35163;48.878;18.040;2023-03-01T10:35:45;99253.47;;;6.08;45.65
49297;BME280;35163;48.878;18.040;2023-03-01T10:38:13;99245.78;;;6.13;45.95
49297;BME280;35163;48.878;18.040;2023-03-01T10:41:05;99244.94;;;6.23;46.24
49297;BME280;35163;48.878;18.040;2023-03-01T10:43:47;99240.66;;;6.28;45.16
49297;BME280;35163;48.878;18.040;2023-03-01T10:51:42;99225.16;;;6.63;45.35
49297;BME280;35163;48.878;18.040;2023-03-01T10:54:30;99226.00;;;6.65;44.97
49297;BME280;35163;48.878;18.040;2023-03-01T10:57:02;99219.16;;;6.76;44.95
49297;BME280;35163;48.878;18.040;2023-03-01T10:59:32;99214.81;;;6.88;44.13
49297;BME280;35163;48.878;18.040;2023-03-01T11:02:20;99212.22;;;7.00;43.68
49297;BME280;35163;48.878;18.040;2023-03-01T11:07:23;99203.56;;;7.08;43.55
49297;BME280;35163;48.878;18.040;2023-03-01T11:09:50;99200.16;;;7.10;43.49
49297;BME280;35163;48.878;18.040;2023-03-01T11:12:17;99199.25;;;7.14;43.62
49297;BME280;35163;48.878;18.040;2023-03-01T11:14:53;99202.69;;;7.18;43.45
49297;BME280;35163;48.878;18.040;2023-03-01T11:17:27;99196.69;;;7.19;42.73
49297;BME280;35163;48.878;18.040;2023-03-01T11:20:02;99188.06;;;7.26;43.03
49297;BME280;35163;48.878;18.040;2023-03-01T11:22:31;99180.28;;;7.37;42.72
49297;BME280;35163;48.878;18.040;2023-03-01T11:24:59;99174.22;;;7.46;42.97
49297;BME280;35163;48.878;18.040;2023-03-01T11:27:43;99169.00;;;7.56;42.86
49297;BME280;35163;48.878;18.040;2023-03-01T11:33:25;99162.06;;;7.67;42.68
49297;BME280;35163;48.878;18.040;2023-03-01T11:36:03;99149.22;;;7.65;42.18
49297;BME280;35163;48.878;18.040;2023-03-01T11:38:35;99138.94;;;7.61;41.74
49297;BME280;35163;48.878;18.040;2023-03-01T11:41:10;99138.00;;;7.71;41.75
49297;BME280;35163;48.878;18.040;2023-03-01T11:43:59;99138.78;;;7.80;41.56
49297;BME280;35163;48.878;18.040;2023-03-01T12:00:20;99132.59;;;8.01;40.97
49297;BME280;35163;48.878;18.040;2023-03-01T12:08:31;99112.72;;;8.12;41.75
49297;BME280;35163;48.878;18.040;2023-03-01T12:11:12;99100.63;;;8.19;41.27
49297;BME280;35163;48.878;18.040;2023-03-01T12:14:03;99096.28;;;8.24;41.09
49297;BME280;35163;48.878;18.040;2023-03-01T12:19:15;99103.03;;;8.39;41.55
49297;BME280;35163;48.878;18.040;2023-03-01T12:41:52;99061.25;;;8.82;39.26
49297;BME280;35163;48.878;18.040;2023-03-01T12:49:49;99067.06;;;8.96;39.89
49297;BME280;35163;48.878;18.040;2023-03-01T12:52:32;99068.72;;;9.02;40.33
49297;BME280;35163;48.878;18.040;2023-03-01T12:55:08;99064.34;;;9.07;40.11
49297;BME280;35163;48.878;18.040;2023-03-01T12:57:56;99061.63;;;9.17;40.13
49297;BME280;35163;48.878;18.040;2023-03-01T13:00:33;99068.41;;;9.22;40.61
49297;BME280;35163;48.878;18.040;2023-03-01T13:03:29;99060.66;;;9.22;40.40
49297;BME280;35163;48.878;18.040;2023-03-01T13:17:57;99049.16;;;9.44;41.13
49297;BME280;35163;48.878;18.040;2023-03-01T13:20:34;99042.13;;;9.52;41.67
49297;BME280;35163;48.878;18.040;2023-03-01T13:31:06;99022.09;;;9.65;41.91
49297;BME280;35163;48.878;18.040;2023-03-01T13:33:40;99024.59;;;9.71;42.35
49297;BME280;35163;48.878;18.040;2023-03-01T13:36:09;99018.44;;;9.77;43.22
49297;BME280;35163;48.878;18.040;2023-03-01T13:41:11;99019.13;;;9.85;43.40
49297;BME280;35163;48.878;18.040;2023-03-01T13:43:40;99021.72;;;9.87;42.87
49297;BME280;35163;48.878;18.040;2023-03-01T13:46:16;99021.72;;;9.87;42.56
49297;BME280;35163;48.878;18.040;2023-03-01T13:48:46;99027.63;;;9.94;43.26
49297;BME280;35163;48.878;18.040;2023-03-01T13:51:15;99031.78;;;10.00;43.82
49297;BME280;35163;48.878;18.040;2023-03-01T13:53:44;99034.41;;;9.98;44.20
49297;BME280;35163;48.878;18.040;2023-03-01T13:56:14;99033.63;;;9.94;43.56
49297;BME280;35163;48.878;18.040;2023-03-01T13:58:54;99021.50;;;9.98;43.67
49297;BME280;35163;48.878;18.040;2023-03-01T14:01:29;99035.22;;;10.02;43.92
49297;BME280;35163;48.878;18.040;2023-03-01T14:03:58;99029.94;;;10.06;43.78
49297;BME280;35163;48.878;18.040;2023-03-01T14:06:30;99025.66;;;10.05;43.82
49297;BME280;35163;48.878;18.040;2023-03-01T14:11:49;99018.75;;;10.07;43.62
49297;BME280;35163;48.878;18.040;2023-03-01T14:17:16;99003.97;;;10.14;44.46
49297;BME280;35163;48.878;18.040;2023-03-01T14:19:47;99008.25;;;10.15;44.54
49297;BME280;35163;48.878;18.040;2023-03-01T14:22:29;99006.59;;;10.13;45.23
49297;BME280;35163;48.878;18.040;2023-03-01T14:24:59;99007.28;;;10.21;44.92
49297;BME280;35163;48.878;18.040;2023-03-01T14:27:28;99002.94;;;10.23;44.76
49297;BME280;35163;48.878;18.040;2023-03-01T14:30:02;98998.56;;;10.25;44.27
49297;BME280;35163;48.878;18.040;2023-03-01T14:32:31;98996.75;;;10.29;43.91
49297;BME280;35163;48.878;18.040;2023-03-01T14:34:59;98991.53;;;10.32;43.90
49297;BME280;35163;48.878;18.040;2023-03-01T14:37:33;99000.97;;;10.35;43.63
49297;BME280;35163;48.878;18.040;2023-03-01T14:40:03;99007.91;;;10.32;43.46
49297;BME280;35163;48.878;18.040;2023-03-01T14:42:36;99007.03;;;10.32;43.67
49297;BME280;35163;48.878;18.040;2023-03-01T14:45:14;99001.81;;;10.35;44.09
49297;BME280;35163;48.878;18.040;2023-03-01T14:47:41;98998.28;;;10.39;44.79
49297;BME280;35163;48.878;18.040;2023-03-01T14:50:27;98996.59;;;10.38;44.82
49297;BME280;35163;48.878;18.040;2023-03-01T14:52:58;99002.63;;;10.37;45.47
49297;BME280;35163;48.878;18.040;2023-03-01T14:57:58;98996.59;;;10.38;45.29
49297;BME280;35163;48.878;18.040;2023-03-01T15:00:30;98999.09;;;10.41;45.93
49297;BME280;35163;48.878;18.040;2023-03-01T15:03:12;98998.25;;;10.41;46.00
49297;BME280;35163;48.878;18.040;2023-03-01T15:05:40;98995.72;;;10.38;45.42
49297;BME280;35163;48.878;18.040;2023-03-01T15:08:19;98987.22;;;10.32;45.43
49297;BME280;35163;48.878;18.040;2023-03-01T15:11:20;98989.72;;;10.36;45.27
49297;BME280;35163;48.878;18.040;2023-03-01T15:13:49;98989.72;;;10.36;44.88
49297;BME280;35163;48.878;18.040;2023-03-01T15:19:01;98987.94;;;10.39;45.36